sensor_id;sensor_type;location;lat;lon;timestamp;pressure;altitude;pressure_sealevel;temperature;humidity
69145;BME280;56251;50.324;17.574;2023-04-29T00:00:21;101493.68;;;14.12;48.79
69145;BME280;56251;50.324;17.574;2023-04-29T00:00:51;101489.46;;;14.11;48.79
69145;BME280;56251;50.324;17.574;2023-04-29T00:03:28;101492.29;;;14.18;48.84
69145;BME280;56251;50.324;17.574;2023-04-29T00:03:58;101490.30;;;14.20;48.84
69145;BME280;56251;50.324;17.574;2023-04-29T00:06:38;101487.16;;;14.26;48.73
69145;BME280;56251;50.324;17.574;2023-04-29T00:07:06;101488.41;;;14.30;48.66
69145;BME280;56251;50.324;17.574;2023-04-29T00:09:44;101488.48;;;14.25;48.78
69145;BME280;56251;50.324;17.574;2023-04-29T00:10:13;101488.15;;;14.21;48.92
69145;BME280;56251;50.324;17.574;2023-04-29T00:12:51;101488.26;;;14.12;49.25
69145;BME280;56251;50.324;17.574;2023-04-29T00:13:19;101487.37;;;14.13;49.18
69145;BME280;56251;50.324;17.574;2023-04-29T00:15:56;101484.22;;;14.05;49.56
69145;BME280;56251;50.324;17.574;2023-04-29T00:16:25;101482.26;;;14.06;49.44
69145;BME280;56251;50.324;17.574;2023-04-29T00:19:03;101479.27;;;13.95;50.00
69145;BME280;56251;50.324;17.574;2023-04-29T00:19:31;101477.95;;;13.96;50.06
69145;BME280;56251;50.324;17.574;2023-04-29T00:22:09;101479.56;;;14.06;49.95
69145;BME280;56251;50.324;17.574;2023-04-29T00:22:38;101482.05;;;14.07;49.77
69145;BME280;56251;50.324;17.574;2023-04-29T00:25:15;101479.15;;;14.03;49.81
69145;BME280;56251;50.324;17.574;2023-04-29T00:25:44;101478.41;;;14.03;49.92
69145;BME280;56251;50.324;17.574;2023-04-29T00:28:22;101481.97;;;13.96;50.12
69145;BME280;56251;50.324;17.574;2023-04-29T00:28:50;101477.38;;;13.91;50.13
69145;BME280;56251;50.324;17.574;2023-04-29T00:31:28;101476.10;;;13.81;50.65
69145;BME280;56251;50.324;17.574;2023-04-29T00:31:56;101476.16;;;13.82;50.51
69145;BME280;56251;50.324;17.574;2023-04-29T00:34:35;101470.30;;;13.84;50.56
69145;BME280;56251;50.324;17.574;2023-04-29T00:35:03;101471.70;;;13.84;50.58
69145;BME280;56251;50.324;17.574;2023-04-29T00:37:41;101466.94;;;13.58;51.29
69145;BME280;56251;50.324;17.574;2023-04-29T00:38:09;101470.08;;;13.58;51.37
69145;BME280;56251;50.324;17.574;2023-04-29T00:40:48;101465.31;;;13.50;51.74
69145;BME280;56251;50.324;17.574;2023-04-29T00:41:15;101464.95;;;13.48;51.77
69145;BME280;56251;50.324;17.574;2023-04-29T00:43:55;101468.40;;;13.33;52.43
69145;BME280;56251;50.324;17.574;2023-04-29T00:44:23;101468.32;;;13.34;52.45
69145;BME280;56251;50.324;17.574;2023-04-29T00:47:01;101470.94;;;13.38;52.50
69145;BME280;56251;50.324;17.574;2023-04-29T00:47:29;101469.27;;;13.36;52.52
69145;BME280;56251;50.324;17.574;2023-04-29T00:50:10;101467.22;;;13.25;53.19
69145;BME280;56251;50.324;17.574;2023-04-29T00:50:36;101465.91;;;13.22;53.15
69145;BME280;56251;50.324;17.574;2023-04-29T00:53:17;101467.70;;;13.33;53.04
69145;BME280;56251;50.324;17.574;2023-04-29T00:53:44;101466.70;;;13.33;53.05
69145;BME280;56251;50.324;17.574;2023-04-29T00:56:24;101468.23;;;13.32;53.23
69145;BME280;56251;50.324;17.574;2023-04-29T00:56:51;101467.98;;;13.38;53.15
69145;BME280;56251;50.324;17.574;2023-04-29T00:59:32;101466.89;;;13.35;53.26
69145;BME280;56251;50.324;17.574;2023-04-29T01:00:00;101467.57;;;13.32;53.32
69145;BME280;56251;50.324;17.574;2023-04-29T01:02:39;101466.25;;;13.20;53.84
69145;BME280;56251;50.324;17.574;2023-04-29T01:03:07;101463.19;;;13.12;54.06
69145;BME280;56251;50.324;17.574;2023-04-29T01:05:46;101464.39;;;13.17;54.24
69145;BME280;56251;50.324;17.574;2023-04-29T01:06:47;101465.96;;;13.21;54.15
69145;BME280;56251;50.324;17.574;2023-04-29T01:10:11;101466.92;;;13.32;53.88
69145;BME280;56251;50.324;17.574;2023-04-29T01:12:45;101465.20;;;13.27;53.96
69145;BME280;56251;50.324;17.574;2023-04-29T01:13:20;101466.88;;;13.29;54.00
69145;BME280;56251;50.324;17.574;2023-04-29T01:16:00;101467.95;;;13.37;53.86
69145;BME280;56251;50.324;17.574;2023-04-29T01:16:37;101468.55;;;13.31;53.88
69145;BME280;56251;50.324;17.574;2023-04-29T01:19:53;101469.57;;;13.37;53.98
69145;BME280;56251;50.324;17.574;2023-04-29T01:22:33;101464.27;;;13.39;54.09
69145;BME280;56251;50.324;17.574;2023-04-29T01:22:59;101463.52;;;13.39;54.06
69145;BME280;56251;50.324;17.574;2023-04-29T01:25:41;101461.23;;;13.33;54.48
69145;BME280;56251;50.324;17.574;2023-04-29T01:26:07;101463.94;;;13.36;54.44
69145;BME280;56251;50.324;17.574;2023-04-29T01:29:34;101456.12;;;13.39;54.53
69145;BME280;56251;50.324;17.574;2023-04-29T01:32:05;101456.16;;;13.34;54.85
69145;BME280;56251;50.324;17.574;2023-04-29T01:39:55;101450.94;;;13.26;55.48
69145;BME280;56251;50.324;17.574;2023-04-29T01:42:14;101445.21;;;13.35;55.35
69145;BME280;56251;50.324;17.574;2023-04-29T01:43:01;101447.98;;;13.34;55.39
69145;BME280;56251;50.324;17.574;2023-04-29T01:45:20;101444.56;;;13.34;55.59
69145;BME280;56251;50.324;17.574;2023-04-29T01:46:09;101446.84;;;13.30;55.79
69145;BME280;56251;50.324;17.574;2023-04-29T01:48:28;101440.05;;;13.21;56.27
69145;BME280;56251;50.324;17.574;2023-04-29T01:49:26;101441.30;;;13.13;56.43
69145;BME280;56251;50.324;17.574;2023-04-29T01:51:35;101442.65;;;13.22;56.48
69145;BME280;56251;50.324;17.574;2023-04-29T01:52:34;101443.11;;;13.23;56.49
69145;BME280;56251;50.324;17.574;2023-04-29T01:54:42;101447.28;;;13.21;56.64
69145;BME280;56251;50.324;17.574;2023-04-29T01:55:47;101444.13;;;13.25;56.63
69145;BME280;56251;50.324;17.574;2023-04-29T01:57:50;101443.98;;;13.26;56.81
69145;BME280;56251;50.324;17.574;2023-04-29T01:58:53;101441.12;;;13.19;57.05
69145;BME280;56251;50.324;17.574;2023-04-29T02:00:56;101439.92;;;13.15;57.14
69145;BME280;56251;50.324;17.574;2023-04-29T02:01:59;101441.23;;;13.18;57.10
69145;BME280;56251;50.324;17.574;2023-04-29T02:04:02;101439.72;;;13.16;57.40
69145;BME280;56251;50.324;17.574;2023-04-29T02:05:07;101444.98;;;13.20;57.27
69145;BME280;56251;50.324;17.574;2023-04-29T02:07:10;101443.84;;;13.15;57.40
69145;BME280;56251;50.324;17.574;2023-04-29T02:08:16;101446.18;;;13.16;57.45
69145;BME280;56251;50.324;17.574;2023-04-29T02:10:16;101445.08;;;13.19;57.39
69145;BME280;56251;50.324;17.574;2023-04-29T02:11:22;101438.44;;;13.18;57.36
69145;BME280;56251;50.324;17.574;2023-04-29T02:13:22;101444.25;;;13.12;57.56
69145;BME280;56251;50.324;17.574;2023-04-29T02:14:28;101441.89;;;13.12;57.67
69145;BME280;56251;50.324;17.574;2023-04-29T02:16:30;101445.24;;;13.17;57.73
69145;BME280;56251;50.324;17.574;2023-04-29T02:17:37;101441.69;;;13.16;57.65
69145;BME280;56251;50.324;17.574;2023-04-29T02:19:37;101439.50;;;13.16;57.58
69145;BME280;56251;50.324;17.574;2023-04-29T02:20:43;101438.27;;;13.14;57.72
69145;BME280;56251;50.324;17.574;2023-04-29T02:22:43;101437.78;;;13.09;57.94
69145;BME280;56251;50.324;17.574;2023-04-29T02:23:49;101437.45;;;13.12;58.04
69145;BME280;56251;50.324;17.574;2023-04-29T02:25:51;101436.15;;;13.22;57.75
69145;BME280;56251;50.324;17.574;2023-04-29T02:26:56;101434.95;;;13.27;57.47
69145;BME280;56251;50.324;17.574;2023-04-29T02:29:03;101430.73;;;13.21;57.44
69145;BME280;56251;50.324;17.574;2023-04-29T02:30:09;101430.28;;;13.19;57.58
69145;BME280;56251;50.324;17.574;2023-04-29T02:32:09;101427.98;;;13.23;57.65
69145;BME280;56251;50.324;17.574;2023-04-29T02:33:16;101432.16;;;13.30;57.53
69145;BME280;56251;50.324;17.574;2023-04-29T02:35:17;101424.13;;;13.41;57.08
69145;BME280;56251;50.324;17.574;2023-04-29T02:36:23;101424.52;;;13.25;57.52
69145;BME280;56251;50.324;17.574;2023-04-29T02:38:23;101426.74;;;13.05;58.17
69145;BME280;56251;50.324;17.574;2023-04-29T02:39:30;101428.59;;;12.90;58.70
69145;BME280;56251;50.324;17.574;2023-04-29T02:41:29;101429.21;;;12.79;59.26
69145;BME280;56251;50.324;17.574;2023-04-29T02:42:36;101428.63;;;12.78;59.43
69145;BME280;56251;50.324;17.574;2023-04-29T02:44:35;101433.89;;;12.73;59.59
69145;BME280;56251;50.324;17.574;2023-04-29T02:45:42;101432.66;;;12.76;59.62
69145;BME280;56251;50.324;17.574;2023-04-29T02:47:42;101426.68;;;12.69;59.94
69145;BME280;56251;50.324;17.574;2023-04-29T02:48:49;101426.25;;;12.72;60.01
69145;BME280;56251;50.324;17.574;2023-04-29T02:50:48;101428.36;;;12.73;59.90
69145;BME280;56251;50.324;17.574;2023-04-29T02:51:57;101425.05;;;12.73;59.95
69145;BME280;56251;50.324;17.574;2023-04-29T02:53:54;101422.22;;;12.77;59.88
69145;BME280;56251;50.324;17.574;2023-04-29T02:55:06;101423.93;;;12.76;59.97
69145;BME280;56251;50.324;17.574;2023-04-29T02:57:03;101420.94;;;12.73;60.11
69145;BME280;56251;50.324;17.574;2023-04-29T02:58:14;101423.71;;;12.67;60.31
69145;BME280;56251;50.324;17.574;2023-04-29T03:00:11;101423.14;;;12.67;60.40
69145;BME280;56251;50.324;17.574;2023-04-29T03:01:21;101424.38;;;12.61;60.51
69145;BME280;56251;50.324;17.574;2023-04-29T03:03:23;101421.29;;;12.43;61.10
69145;BME280;56251;50.324;17.574;2023-04-29T03:04:30;101423.20;;;12.40;61.43
69145;BME280;56251;50.324;17.574;2023-04-29T03:06:31;101425.23;;;12.32;61.78
69145;BME280;56251;50.324;17.574;2023-04-29T03:07:37;101425.09;;;12.40;61.53
69145;BME280;56251;50.324;17.574;2023-04-29T03:09:38;101426.10;;;12.38;61.70
69145;BME280;56251;50.324;17.574;2023-04-29T03:10:44;101423.29;;;12.29;61.88
69145;BME280;56251;50.324;17.574;2023-04-29T03:12:46;101427.05;;;12.34;61.96
69145;BME280;56251;50.324;17.574;2023-04-29T03:13:51;101428.09;;;12.32;61.98
69145;BME280;56251;50.324;17.574;2023-04-29T03:15:52;101424.66;;;12.35;61.80
69145;BME280;56251;50.324;17.574;2023-04-29T03:16:58;101427.30;;;12.34;61.94
69145;BME280;56251;50.324;17.574;2023-04-29T03:18:59;101425.93;;;12.36;61.83
69145;BME280;56251;50.324;17.574;2023-04-29T03:20:05;101427.70;;;12.37;61.79
69145;BME280;56251;50.324;17.574;2023-04-29T03:22:11;101428.75;;;12.44;61.57
69145;BME280;56251;50.324;17.574;2023-04-29T03:23:17;101431.66;;;12.46;61.44
69145;BME280;56251;50.324;17.574;2023-04-29T03:25:18;101431.15;;;12.52;61.50
69145;BME280;56251;50.324;17.574;2023-04-29T03:26:23;101428.06;;;12.54;61.43
69145;BME280;56251;50.324;17.574;2023-04-29T03:28:24;101427.88;;;12.55;61.29
69145;BME280;56251;50.324;17.574;2023-04-29T03:29:30;101434.43;;;12.52;61.50
69145;BME280;56251;50.324;17.574;2023-04-29T03:31:30;101433.55;;;12.47;61.66
69145;BME280;56251;50.324;17.574;2023-04-29T03:32:36;101434.73;;;12.47;61.68
69145;BME280;56251;50.324;17.574;2023-04-29T03:34:36;101429.16;;;12.52;61.68
69145;BME280;56251;50.324;17.574;2023-04-29T03:35:43;101428.10;;;12.50;61.71
69145;BME280;56251;50.324;17.574;2023-04-29T03:37:42;101421.39;;;12.53;61.59
69145;BME280;56251;50.324;17.574;2023-04-29T03:38:51;101422.27;;;12.59;61.48
69145;BME280;56251;50.324;17.574;2023-04-29T03:40:49;101421.36;;;12.73;61.22
69145;BME280;56251;50.324;17.574;2023-04-29T03:41:59;101423.37;;;12.77;61.06
69145;BME280;56251;50.324;17.574;2023-04-29T03:43:55;101426.05;;;12.80;61.00
69145;BME280;56251;50.324;17.574;2023-04-29T03:45:08;101423.98;;;12.82;60.75
69145;BME280;56251;50.324;17.574;2023-04-29T03:47:05;101431.10;;;12.71;60.92
69145;BME280;56251;50.324;17.574;2023-04-29T03:48:14;101432.07;;;12.68;61.17
69145;BME280;56251;50.324;17.574;2023-04-29T03:50:12;101437.54;;;12.67;61.31
69145;BME280;56251;50.324;17.574;2023-04-29T03:51:21;101435.55;;;12.59;61.49
69145;BME280;56251;50.324;17.574;2023-04-29T03:53:18;101432.60;;;12.60;61.55
69145;BME280;56251;50.324;17.574;2023-04-29T03:54:27;101432.52;;;12.59;61.62
69145;BME280;56251;50.324;17.574;2023-04-29T03:56:26;101431.91;;;12.68;61.50
69145;BME280;56251;50.324;17.574;2023-04-29T03:57:33;101433.81;;;12.63;61.54
69145;BME280;56251;50.324;17.574;2023-04-29T03:59:32;101439.77;;;12.44;62.04
69145;BME280;56251;50.324;17.574;2023-04-29T04:00:40;101440.66;;;12.45;62.20
69145;BME280;56251;50.324;17.574;2023-04-29T04:02:38;101440.79;;;12.39;62.41
69145;BME280;56251;50.324;17.574;2023-04-29T04:03:46;101443.93;;;12.43;62.43
69145;BME280;56251;50.324;17.574;2023-04-29T04:05:44;101448.53;;;12.57;62.50
69145;BME280;56251;50.324;17.574;2023-04-29T04:06:53;101443.44;;;12.61;62.33
69145;BME280;56251;50.324;17.574;2023-04-29T04:08:50;101446.58;;;12.70;61.75
69145;BME280;56251;50.324;17.574;2023-04-29T04:09:59;101438.62;;;12.74;61.55
69145;BME280;56251;50.324;17.574;2023-04-29T04:11:58;101440.53;;;12.81;61.54
69145;BME280;56251;50.324;17.574;2023-04-29T04:13:06;101441.20;;;12.77;61.36
69145;BME280;56251;50.324;17.574;2023-04-29T04:15:05;101436.68;;;12.72;61.31
69145;BME280;56251;50.324;17.574;2023-04-29T04:16:13;101437.00;;;12.66;61.57
69145;BME280;56251;50.324;17.574;2023-04-29T04:18:12;101441.11;;;12.60;61.90
69145;BME280;56251;50.324;17.574;2023-04-29T04:19:19;101443.88;;;12.50;62.09
69145;BME280;56251;50.324;17.574;2023-04-29T04:21:18;101444.99;;;12.50;62.12
69145;BME280;56251;50.324;17.574;2023-04-29T04:22:25;101447.13;;;12.51;62.18
69145;BME280;56251;50.324;17.574;2023-04-29T04:24:25;101442.45;;;12.44;62.52
69145;BME280;56251;50.324;17.574;2023-04-29T04:25:31;101438.95;;;12.41;62.55
69145;BME280;56251;50.324;17.574;2023-04-29T04:27:31;101442.01;;;12.44;62.62
69145;BME280;56251;50.324;17.574;2023-04-29T04:28:37;101440.29;;;12.43;62.60
69145;BME280;56251;50.324;17.574;2023-04-29T04:30:37;101438.05;;;12.41;62.71
69145;BME280;56251;50.324;17.574;2023-04-29T04:31:43;101435.04;;;12.34;62.83
69145;BME280;56251;50.324;17.574;2023-04-29T04:33:43;101431.32;;;12.39;62.84
69145;BME280;56251;50.324;17.574;2023-04-29T04:34:51;101429.79;;;12.47;62.63
69145;BME280;56251;50.324;17.574;2023-04-29T04:36:51;101425.47;;;12.59;62.20
69145;BME280;56251;50.324;17.574;2023-04-29T04:37:57;101428.13;;;12.60;61.97
69145;BME280;56251;50.324;17.574;2023-04-29T04:39:58;101432.80;;;12.52;62.31
69145;BME280;56251;50.324;17.574;2023-04-29T04:41:08;101431.21;;;12.56;62.16
69145;BME280;56251;50.324;17.574;2023-04-29T04:43:10;101430.84;;;12.59;61.96
69145;BME280;56251;50.324;17.574;2023-04-29T04:44:16;101432.72;;;12.69;61.80
69145;BME280;56251;50.324;17.574;2023-04-29T04:46:16;101428.72;;;12.81;61.35
69145;BME280;56251;50.324;17.574;2023-04-29T04:47:23;101430.02;;;12.85;61.19
69145;BME280;56251;50.324;17.574;2023-04-29T04:49:23;101427.31;;;13.05;60.62
69145;BME280;56251;50.324;17.574;2023-04-29T04:50:31;101425.52;;;13.09;60.33
69145;BME280;56251;50.324;17.574;2023-04-29T04:52:30;101420.27;;;13.13;60.21
69145;BME280;56251;50.324;17.574;2023-04-29T04:53:37;101413.98;;;13.19;59.90
69145;BME280;56251;50.324;17.574;2023-04-29T04:55:36;101409.87;;;13.45;59.40
69145;BME280;56251;50.324;17.574;2023-04-29T04:56:43;101405.90;;;13.56;59.12
69145;BME280;56251;50.324;17.574;2023-04-29T04:58:43;101404.78;;;13.79;57.98
69145;BME280;56251;50.324;17.574;2023-04-29T04:59:49;101402.38;;;13.80;57.71
69145;BME280;56251;50.324;17.574;2023-04-29T05:01:50;101394.54;;;13.89;57.59
69145;BME280;56251;50.324;17.574;2023-04-29T05:02:55;101404.45;;;13.76;57.91
69145;BME280;56251;50.324;17.574;2023-04-29T05:04:56;101398.62;;;13.75;58.05
69145;BME280;56251;50.324;17.574;2023-04-29T05:06:02;101395.96;;;13.70;58.17
69145;BME280;56251;50.324;17.574;2023-04-29T05:08:03;101390.91;;;13.74;58.19
69145;BME280;56251;50.324;17.574;2023-04-29T05:09:10;101391.20;;;13.74;58.47
69145;BME280;56251;50.324;17.574;2023-04-29T05:11:18;101393.29;;;13.62;58.64
69145;BME280;56251;50.324;17.574;2023-04-29T05:12:16;101392.67;;;13.53;58.95
69145;BME280;56251;50.324;17.574;2023-04-29T05:14:25;101396.30;;;13.38;59.59
69145;BME280;56251;50.324;17.574;2023-04-29T05:15:22;101392.36;;;13.35;59.69
69145;BME280;56251;50.324;17.574;2023-04-29T05:17:31;101395.49;;;13.35;60.01
69145;BME280;56251;50.324;17.574;2023-04-29T05:18:34;101395.52;;;13.38;60.01
69145;BME280;56251;50.324;17.574;2023-04-29T05:20:39;101394.94;;;13.37;60.29
69145;BME280;56251;50.324;17.574;2023-04-29T05:21:41;101389.63;;;13.38;60.27
69145;BME280;56251;50.324;17.574;2023-04-29T05:23:47;101388.79;;;13.47;60.22
69145;BME280;56251;50.324;17.574;2023-04-29T05:24:47;101391.33;;;13.58;59.80
69145;BME280;56251;50.324;17.574;2023-04-29T05:26:53;101389.48;;;13.54;59.84
69145;BME280;56251;50.324;17.574;2023-04-29T05:27:54;101392.05;;;13.64;59.59
69145;BME280;56251;50.324;17.574;2023-04-29T05:30:00;101398.42;;;13.68;59.58
69145;BME280;56251;50.324;17.574;2023-04-29T05:31:02;101393.91;;;13.69;59.45
69145;BME280;56251;50.324;17.574;2023-04-29T05:33:08;101391.53;;;13.69;59.37
69145;BME280;56251;50.324;17.574;2023-04-29T05:34:08;101392.59;;;13.74;59.25
69145;BME280;56251;50.324;17.574;2023-04-29T05:36:19;101391.34;;;13.89;59.06
69145;BME280;56251;50.324;17.574;2023-04-29T05:37:16;101388.45;;;13.97;58.76
69145;BME280;56251;50.324;17.574;2023-04-29T05:39:25;101392.54;;;14.15;58.81
69145;BME280;56251;50.324;17.574;2023-04-29T05:40:22;101394.52;;;14.22;58.45
69145;BME280;56251;50.324;17.574;2023-04-29T05:42:33;101390.11;;;14.57;58.48
69145;BME280;56251;50.324;17.574;2023-04-29T05:43:29;101393.20;;;14.64;57.83
69145;BME280;56251;50.324;17.574;2023-04-29T05:45:39;101392.85;;;15.10;56.35
69145;BME280;56251;50.324;17.574;2023-04-29T05:46:35;101396.55;;;15.31;55.57
69145;BME280;56251;50.324;17.574;2023-04-29T05:48:45;101390.68;;;16.05;52.81
69145;BME280;56251;50.324;17.574;2023-04-29T05:49:41;101392.65;;;16.47;51.32
69145;BME280;56251;50.324;17.574;2023-04-29T05:51:52;101390.00;;;17.51;48.44
69145;BME280;56251;50.324;17.574;2023-04-29T05:52:54;101384.70;;;18.04;47.50
69145;BME280;56251;50.324;17.574;2023-04-29T05:55:00;101380.79;;;19.01;44.69
69145;BME280;56251;50.324;17.574;2023-04-29T05:56:01;101381.51;;;19.58;45.04
69145;BME280;56251;50.324;17.574;2023-04-29T05:58:06;101384.49;;;20.28;42.02
69145;BME280;56251;50.324;17.574;2023-04-29T05:59:09;101382.09;;;20.68;41.40
69145;BME280;56251;50.324;17.574;2023-04-29T06:01:13;101383.06;;;21.45;39.50
69145;BME280;56251;50.324;17.574;2023-04-29T06:02:15;101382.20;;;21.80;39.29
69145;BME280;56251;50.324;17.574;2023-04-29T06:04:22;101378.33;;;22.64;38.06
69145;BME280;56251;50.324;17.574;2023-04-29T06:05:22;101377.25;;;22.99;36.93
69145;BME280;56251;50.324;17.574;2023-04-29T06:07:30;101378.91;;;23.20;35.79
69145;BME280;56251;50.324;17.574;2023-04-29T06:08:29;101373.49;;;23.38;35.40
69145;BME280;56251;50.324;17.574;2023-04-29T06:10:38;101370.58;;;23.64;35.13
69145;BME280;56251;50.324;17.574;2023-04-29T06:11:36;101371.27;;;23.63;35.19
69145;BME280;56251;50.324;17.574;2023-04-29T06:13:45;101371.04;;;23.38;34.57
69145;BME280;56251;50.324;17.574;2023-04-29T06:14:42;101369.11;;;23.13;34.67
69145;BME280;56251;50.324;17.574;2023-04-29T06:16:53;101368.08;;;22.75;35.56
69145;BME280;56251;50.324;17.574;2023-04-29T06:17:50;101372.93;;;22.64;35.95
69145;BME280;56251;50.324;17.574;2023-04-29T06:20:00;101373.32;;;22.50;36.31
69145;BME280;56251;50.324;17.574;2023-04-29T06:20:56;101371.65;;;22.21;36.71
69145;BME280;56251;50.324;17.574;2023-04-29T06:23:07;101376.75;;;21.83;37.75
69145;BME280;56251;50.324;17.574;2023-04-29T06:24:02;101374.60;;;21.70;37.79
69145;BME280;56251;50.324;17.574;2023-04-29T06:26:13;101366.80;;;21.58;38.02
69145;BME280;56251;50.324;17.574;2023-04-29T06:27:15;101375.27;;;21.45;38.43
69145;BME280;56251;50.324;17.574;2023-04-29T06:29:20;101368.92;;;21.36;38.50
69145;BME280;56251;50.324;17.574;2023-04-29T06:30:21;101371.78;;;21.34;38.63
69145;BME280;56251;50.324;17.574;2023-04-29T06:32:27;101368.68;;;21.38;39.51
69145;BME280;56251;50.324;17.574;2023-04-29T06:33:29;101368.66;;;21.41;39.62
69145;BME280;56251;50.324;17.574;2023-04-29T06:35:38;101368.06;;;21.28;38.79
69145;BME280;56251;50.324;17.574;2023-04-29T06:36:36;101366.23;;;21.22;38.87
69145;BME280;56251;50.324;17.574;2023-04-29T06:38:44;101367.93;;;21.14;38.99
69145;BME280;56251;50.324;17.574;2023-04-29T06:39:43;101370.43;;;21.23;39.00
69145;BME280;56251;50.324;17.574;2023-04-29T06:41:51;101365.84;;;21.31;39.81
69145;BME280;56251;50.324;17.574;2023-04-29T06:42:50;101371.09;;;21.35;39.53
69145;BME280;56251;50.324;17.574;2023-04-29T06:44:59;101375.73;;;21.31;39.70
69145;BME280;56251;50.324;17.574;2023-04-29T06:45:57;101372.54;;;21.26;38.66
69145;BME280;56251;50.324;17.574;2023-04-29T06:48:05;101374.40;;;21.19;39.25
69145;BME280;56251;50.324;17.574;2023-04-29T06:49:04;101372.56;;;21.05;39.05
69145;BME280;56251;50.324;17.574;2023-04-29T06:51:12;101378.24;;;20.60;39.92
69145;BME280;56251;50.324;17.574;2023-04-29T06:52:11;101378.36;;;20.51;40.28
69145;BME280;56251;50.324;17.574;2023-04-29T06:54:19;101380.06;;;20.22;40.64
69145;BME280;56251;50.324;17.574;2023-04-29T06:55:18;101383.86;;;20.06;41.01
69145;BME280;56251;50.324;17.574;2023-04-29T06:57:27;101368.10;;;20.13;41.33
69145;BME280;56251;50.324;17.574;2023-04-29T06:58:25;101371.20;;;20.17;41.35
69145;BME280;56251;50.324;17.574;2023-04-29T07:00:34;101373.23;;;20.34;41.23
69145;BME280;56251;50.324;17.574;2023-04-29T07:01:37;101369.41;;;20.50;41.09
69145;BME280;56251;50.324;17.574;2023-04-29T07:03:41;101367.20;;;20.63;41.58
69145;BME280;56251;50.324;17.574;2023-04-29T07:04:45;101358.16;;;20.81;40.31
69145;BME280;56251;50.324;17.574;2023-04-29T07:06:49;101372.45;;;20.88;40.01
69145;BME280;56251;50.324;17.574;2023-04-29T07:07:52;101370.12;;;20.77;40.12
69145;BME280;56251;50.324;17.574;2023-04-29T07:09:55;101364.41;;;20.81;40.03
69145;BME280;56251;50.324;17.574;2023-04-29T07:10:59;101356.13;;;20.86;40.20
69145;BME280;56251;50.324;17.574;2023-04-29T07:13:01;101360.47;;;20.90;40.32
69145;BME280;56251;50.324;17.574;2023-04-29T07:14:05;101371.05;;;20.93;39.97
69145;BME280;56251;50.324;17.574;2023-04-29T07:16:16;101362.26;;;21.44;39.24
69145;BME280;56251;50.324;17.574;2023-04-29T07:17:13;101356.38;;;21.74;38.70
69145;BME280;56251;50.324;17.574;2023-04-29T07:19:27;101355.06;;;22.02;38.30
69145;BME280;56251;50.324;17.574;2023-04-29T07:20:20;101354.66;;;22.14;38.46
69145;BME280;56251;50.324;17.574;2023-04-29T07:22:33;101350.03;;;22.26;37.62
69145;BME280;56251;50.324;17.574;2023-04-29T07:23:26;101357.09;;;22.25;37.46
69145;BME280;56251;50.324;17.574;2023-04-29T07:25:40;101350.08;;;22.02;37.77
69145;BME280;56251;50.324;17.574;2023-04-29T07:26:32;101353.75;;;22.01;38.06
69145;BME280;56251;50.324;17.574;2023-04-29T07:28:47;101358.66;;;21.78;38.50
69145;BME280;56251;50.324;17.574;2023-04-29T07:29:39;101353.98;;;21.59;38.79
69145;BME280;56251;50.324;17.574;2023-04-29T07:31:55;101362.34;;;21.66;39.21
69145;BME280;56251;50.324;17.574;2023-04-29T07:32:46;101362.16;;;21.58;39.22
69145;BME280;56251;50.324;17.574;2023-04-29T07:35:02;101369.19;;;21.89;39.08
69145;BME280;56251;50.324;17.574;2023-04-29T07:35:52;101371.86;;;21.96;38.85
69145;BME280;56251;50.324;17.574;2023-04-29T07:38:08;101371.98;;;21.57;39.28
69145;BME280;56251;50.324;17.574;2023-04-29T07:38:58;101376.20;;;21.39;39.46
69145;BME280;56251;50.324;17.574;2023-04-29T07:41:14;101375.10;;;21.17;39.48
69145;BME280;56251;50.324;17.574;2023-04-29T07:42:05;101378.84;;;21.11;39.85
69145;BME280;56251;50.324;17.574;2023-04-29T07:44:21;101378.76;;;21.09;39.65
69145;BME280;56251;50.324;17.574;2023-04-29T07:45:12;101384.84;;;21.14;39.85
69145;BME280;56251;50.324;17.574;2023-04-29T07:47:28;101383.94;;;21.18;39.48
69145;BME280;56251;50.324;17.574;2023-04-29T07:48:19;101389.80;;;21.11;39.70
69145;BME280;56251;50.324;17.574;2023-04-29T07:50:34;101389.24;;;21.08;40.19
69145;BME280;56251;50.324;17.574;2023-04-29T07:51:26;101394.71;;;21.14;40.37
69145;BME280;56251;50.324;17.574;2023-04-29T07:53:43;101392.54;;;21.15;40.34
69145;BME280;56251;50.324;17.574;2023-04-29T07:54:33;101396.59;;;21.14;40.41
69145;BME280;56251;50.324;17.574;2023-04-29T07:56:49;101396.25;;;20.96;41.24
69145;BME280;56251;50.324;17.574;2023-04-29T07:57:39;101397.25;;;20.97;41.24
69145;BME280;56251;50.324;17.574;2023-04-29T07:59:56;101400.70;;;21.04;41.57
69145;BME280;56251;50.324;17.574;2023-04-29T08:00:47;101405.61;;;21.07;41.75
69145;BME280;56251;50.324;17.574;2023-04-29T08:03:02;101410.17;;;20.97;41.42
69145;BME280;56251;50.324;17.574;2023-04-29T08:03:53;101407.52;;;20.93;41.26
69145;BME280;56251;50.324;17.574;2023-04-29T08:06:10;101413.71;;;20.89;41.64
69145;BME280;56251;50.324;17.574;2023-04-29T08:07:02;101418.95;;;20.88;41.62
69145;BME280;56251;50.324;17.574;2023-04-29T08:09:17;101434.49;;;20.29;42.33
69145;BME280;56251;50.324;17.574;2023-04-29T08:10:10;101439.27;;;19.91;43.78
69145;BME280;56251;50.324;17.574;2023-04-29T08:12:23;101447.20;;;18.91;49.75
69145;BME280;56251;50.324;17.574;2023-04-29T08:13:16;101449.28;;;18.54;51.95
69145;BME280;56251;50.324;17.574;2023-04-29T08:15:31;101450.87;;;17.88;56.02